createdAt,value
2022-12-29T00:03:28.976Z,7.61
2022-12-29T00:08:32.645Z,7.59
2022-12-29T00:13:34.574Z,7.67
2022-12-29T00:18:36.622Z,7.79
2022-12-29T00:23:40.328Z,7.83
2022-12-29T00:28:42.463Z,7.91
2022-12-29T00:33:44.915Z,7.95
2022-12-29T00:38:51.914Z,8.04
2022-12-29T00:43:53.859Z,7.96
2022-12-29T00:48:55.661Z,8.03
2022-12-29T00:53:58.730Z,8.04
2022-12-29T00:59:02.089Z,8.04
2022-12-29T01:04:04.994Z,8.12
2022-12-29T01:09:09.276Z,8.07
2022-12-29T01:14:11.391Z,8.08
2022-12-29T01:19:14.047Z,8.16
2022-12-29T01:24:19.591Z,8.21
2022-12-29T01:29:21.840Z,8.26
2022-12-29T01:34:23.975Z,8.16
2022-12-29T01:39:27.071Z,8.13
2022-12-29T01:44:56.914Z,8.07
2022-12-29T01:50:02.512Z,8.05
2022-12-29T01:55:07.701Z,7.96
2022-12-29T02:00:12.141Z,7.98
2022-12-29T02:05:23.997Z,8.18
2022-12-29T02:10:30.812Z,8.25
2022-12-29T02:15:42.469Z,8.40
2022-12-29T02:21:19.411Z,8.40
2022-12-29T02:26:44.001Z,8.48
2022-12-29T02:31:53.493Z,8.72
2022-12-29T02:37:05.501Z,8.75
2022-12-29T02:42:15.380Z,8.86
2022-12-29T02:47:24.901Z,8.84
2022-12-29T02:52:30.169Z,8.92
2022-12-29T02:57:35.317Z,8.97
2022-12-29T03:03:12.417Z,9.09
2022-12-29T03:08:24.332Z,9.08
2022-12-29T03:13:33.905Z,9.22
2022-12-29T03:18:44.779Z,9.21
2022-12-29T03:23:49.368Z,9.26
2022-12-29T03:28:54.236Z,9.24
2022-12-29T03:33:59.427Z,9.31
2022-12-29T03:39:09.241Z,9.31
2022-12-29T03:44:11.860Z,9.29
2022-12-29T03:49:15.300Z,9.32
2022-12-29T03:54:17.111Z,9.46
2022-12-29T03:59:19.894Z,9.34
2022-12-29T04:04:23.877Z,9.48
2022-12-29T04:09:25.538Z,9.52
2022-12-29T04:14:27.593Z,9.41
2022-12-29T04:19:30.608Z,9.50
2022-12-29T04:24:32.796Z,9.49
2022-12-29T04:29:35.061Z,9.51
2022-12-29T04:34:38.744Z,9.48
2022-12-29T04:39:40.835Z,9.54
2022-12-29T04:44:45.240Z,9.56
2022-12-29T04:49:48.823Z,9.54
2022-12-29T04:54:50.910Z,9.56
2022-12-29T04:59:53.088Z,9.70
2022-12-29T05:04:56.456Z,9.67
2022-12-29T05:09:58.249Z,9.80
2022-12-29T05:15:00.575Z,9.85
2022-12-29T05:20:05.169Z,9.90
2022-12-29T05:25:07.565Z,9.99
2022-12-29T05:30:11.201Z,10.04
2022-12-29T05:35:14.609Z,10.19
2022-12-29T05:40:16.926Z,10.19
2022-12-29T05:45:19.407Z,10.26
2022-12-29T05:50:22.505Z,10.26
2022-12-29T05:55:24.224Z,10.26
2022-12-29T06:00:25.989Z,10.33
2022-12-29T06:05:29.489Z,10.28
2022-12-29T06:10:31.354Z,10.39
2022-12-29T06:15:33.972Z,10.36
2022-12-29T06:20:37.712Z,10.40
2022-12-29T06:25:39.788Z,10.37
2022-12-29T06:30:44.521Z,10.29
2022-12-29T06:35:47.931Z,10.19
2022-12-29T06:40:50.042Z,10.15
2022-12-29T06:45:52.423Z,10.10
2022-12-29T06:50:55.573Z,10.14
2022-12-29T06:55:57.373Z,10.02
2022-12-29T07:00:59.544Z,9.96
2022-12-29T07:06:03.199Z,9.78
2022-12-29T07:11:05.463Z,9.73
2022-12-29T07:16:08.306Z,9.68
2022-12-29T07:21:11.937Z,9.56
2022-12-29T07:26:15.977Z,9.58
2022-12-29T07:31:21.675Z,9.58
2022-12-29T07:36:29.314Z,9.62
2022-12-29T07:41:34.181Z,9.63
2022-12-29T07:46:54.252Z,9.73
2022-12-29T07:51:59.492Z,9.81
2022-12-29T07:57:01.292Z,9.86
2022-12-29T08:02:03.159Z,9.89
2022-12-29T08:07:06.372Z,10.01
2022-12-29T08:12:10.164Z,10.05
2022-12-29T08:17:12.445Z,10.11
2022-12-29T08:22:16.132Z,10.15
2022-12-29T08:27:21.047Z,10.12
2022-12-29T08:32:23.831Z,10.14
2022-12-29T08:37:31.089Z,10.09
2022-12-29T08:42:33.983Z,10.13
2022-12-29T08:47:35.737Z,10.27
2022-12-29T08:52:38.824Z,10.36
2022-12-29T08:57:40.611Z,10.38
2022-12-29T09:02:42.556Z,10.48
2022-12-29T09:07:45.827Z,10.62
2022-12-29T09:12:48.057Z,10.55
2022-12-29T09:17:50.495Z,10.50
2022-12-29T09:22:53.864Z,10.74
2022-12-29T09:27:55.913Z,11.23
2022-12-29T09:32:58.309Z,11.33
2022-12-29T09:38:01.604Z,11.45
2022-12-29T09:43:18.391Z,11.61
2022-12-29T09:48:25.343Z,12.00
2022-12-29T09:53:33.019Z,12.28
2022-12-29T09:58:40.913Z,12.39
2022-12-29T10:03:48.688Z,13.49
2022-12-29T10:08:59.733Z,15.61
2022-12-29T10:14:21.124Z,15.36
2022-12-29T10:19:36.836Z,15.78
2022-12-29T10:24:40.768Z,14.47
2022-12-29T10:29:47.803Z,14.67
2022-12-29T10:34:55.105Z,13.06
2022-12-29T10:40:00.278Z,12.63
2022-12-29T10:45:02.616Z,12.57
2022-12-29T10:50:06.555Z,12.42
2022-12-29T10:55:17.186Z,12.40
2022-12-29T11:00:21.533Z,12.36
2022-12-29T11:05:29.810Z,12.31
2022-12-29T11:10:38.748Z,12.12
2022-12-29T11:15:42.417Z,11.78
2022-12-29T11:20:44.461Z,11.61
2022-12-29T11:25:47.914Z,11.25
2022-12-29T11:31:00.901Z,10.83
2022-12-29T11:36:06.537Z,10.53
2022-12-29T11:41:14.398Z,10.38
2022-12-29T11:46:20.626Z,10.23
2022-12-29T11:51:25.398Z,10.16
2022-12-29T11:56:40.878Z,10.01
2022-12-29T12:01:44.378Z,9.82
2022-12-29T12:06:56.040Z,9.66
2022-12-29T12:12:02.444Z,9.64
2022-12-29T12:17:10.482Z,9.65
2022-12-29T12:22:27.678Z,9.64
2022-12-29T12:27:39.139Z,9.61
2022-12-29T12:32:47.729Z,9.62
2022-12-29T12:38:10.910Z,9.64
2022-12-29T12:43:33.592Z,9.71
2022-12-29T12:48:52.634Z,9.85
2022-12-29T12:54:09.069Z,10.06
2022-12-29T12:59:25.187Z,10.35
2022-12-29T13:04:54.332Z,10.60
2022-12-29T13:10:27.170Z,10.67
2022-12-29T13:15:44.150Z,10.72
2022-12-29T13:20:50.928Z,10.57
2022-12-29T13:26:05.488Z,10.38
2022-12-29T13:31:16.526Z,10.29
2022-12-29T13:36:25.590Z,10.16
2022-12-29T13:41:34.538Z,10.08
2022-12-29T13:46:41.339Z,10.04
2022-12-29T13:51:47.805Z,9.97
2022-12-29T13:56:57.388Z,9.88
2022-12-29T14:02:09.675Z,9.72
2022-12-29T14:07:18.015Z,9.63
2022-12-29T14:12:23.425Z,9.61
2022-12-29T14:17:26.911Z,9.66
2022-12-29T14:22:33.241Z,9.86
2022-12-29T14:27:52.756Z,9.92
2022-12-29T14:33:14.012Z,9.90
2022-12-29T14:38:28.748Z,9.77
2022-12-29T14:43:31.739Z,9.90
2022-12-29T14:48:39.300Z,9.88
2022-12-29T14:53:48.891Z,9.83
2022-12-29T14:58:54.625Z,9.76
2022-12-29T15:04:05.836Z,9.71
2022-12-29T15:09:18.934Z,9.76
2022-12-29T15:14:33.684Z,9.70
2022-12-29T15:19:36.918Z,9.70
2022-12-29T15:24:43.064Z,9.61
2022-12-29T15:29:46.928Z,9.51
2022-12-29T15:34:52.195Z,9.47
2022-12-29T15:39:55.835Z,9.50
2022-12-29T15:45:09.861Z,9.44
2022-12-29T15:50:23.514Z,9.54
2022-12-29T15:55:30.400Z,9.72
2022-12-29T16:00:34.830Z,9.70
2022-12-29T16:05:40.393Z,9.87
2022-12-29T16:10:44.019Z,9.81
2022-12-29T16:15:47.280Z,9.92
2022-12-29T16:20:50.554Z,9.91
2022-12-29T16:25:54.510Z,9.98
2022-12-29T16:31:03.711Z,9.99
2022-12-29T16:36:29.438Z,10.01
2022-12-29T16:41:32.556Z,10.10
2022-12-29T16:46:35.035Z,10.06
2022-12-29T16:51:38.794Z,9.95
2022-12-29T16:56:46.332Z,9.93
2022-12-29T17:01:48.853Z,9.93
2022-12-29T17:06:52.722Z,9.99
2022-12-29T17:12:10.754Z,10.08
2022-12-29T17:17:17.402Z,10.09
2022-12-29T17:22:24.223Z,10.00
2022-12-29T17:27:30.599Z,9.98
2022-12-29T17:32:33.190Z,10.20
2022-12-29T17:37:37.668Z,10.14
2022-12-29T17:42:44.863Z,9.90
2022-12-29T17:47:47.502Z,9.66
2022-12-29T17:52:55.341Z,9.59
2022-12-29T17:58:02.092Z,9.38
2022-12-29T18:03:04.246Z,9.06
2022-12-29T18:08:11.312Z,8.71
2022-12-29T18:13:19.856Z,8.46
2022-12-29T18:18:23.597Z,8.34
2022-12-29T18:23:28.693Z,8.28
2022-12-29T18:28:31.500Z,8.28
2022-12-29T18:33:33.847Z,8.35
2022-12-29T18:38:37.051Z,8.34
2022-12-29T18:43:39.269Z,8.27
2022-12-29T18:48:42.058Z,8.33
2022-12-29T18:53:45.884Z,8.24
2022-12-29T18:58:47.591Z,8.31
2022-12-29T19:03:49.694Z,8.21
2022-12-29T19:08:52.968Z,8.06
2022-12-29T19:13:54.665Z,7.98
2022-12-29T19:19:08.784Z,7.93
2022-12-29T19:24:13.528Z,8.01
2022-12-29T19:29:15.470Z,8.09
2022-12-29T19:34:17.799Z,8.20
2022-12-29T19:39:21.467Z,8.37
2022-12-29T19:44:23.619Z,8.38
2022-12-29T19:49:25.888Z,8.36
2022-12-29T19:54:29.228Z,8.32
2022-12-29T19:59:31.101Z,8.36
2022-12-29T20:04:33.060Z,8.50
2022-12-29T20:09:36.149Z,8.70
2022-12-29T20:14:38.624Z,8.81
2022-12-29T20:19:41.817Z,8.93
2022-12-29T20:24:49.896Z,8.91
2022-12-29T20:29:52.651Z,8.89
2022-12-29T20:34:54.809Z,8.93
2022-12-29T20:39:58.204Z,8.95
2022-12-29T20:45:00.444Z,8.81
2022-12-29T20:50:03.073Z,8.72
2022-12-29T20:55:06.714Z,8.55
2022-12-29T21:00:10.037Z,8.40
2022-12-29T21:05:23.722Z,8.45
2022-12-29T21:10:27.956Z,8.62
2022-12-29T21:15:31.664Z,8.65
2022-12-29T21:20:34.207Z,8.55
2022-12-29T21:25:47.698Z,8.53
2022-12-29T21:30:51.577Z,8.26
2022-12-29T21:35:54.381Z,8.12
2022-12-29T21:41:05.307Z,8.19
2022-12-29T21:46:08.384Z,8.22
2022-12-29T21:51:13.716Z,8.17
2022-12-29T21:56:19.704Z,8.08
2022-12-29T22:01:23.896Z,7.96
2022-12-29T22:06:27.324Z,7.98
2022-12-29T22:11:31.986Z,7.86
2022-12-29T22:16:35.775Z,7.79
2022-12-29T22:21:41.586Z,7.70
2022-12-29T22:26:45.545Z,7.68
2022-12-29T22:31:48.365Z,7.53
2022-12-29T22:36:50.806Z,7.61
2022-12-29T22:41:54.022Z,7.75
2022-12-29T22:46:56.442Z,7.77
2022-12-29T22:51:58.720Z,7.73
2022-12-29T22:57:01.979Z,7.67
2022-12-29T23:02:03.930Z,7.52
2022-12-29T23:07:06.069Z,7.42
2022-12-29T23:12:09.578Z,7.42
2022-12-29T23:17:11.383Z,7.43
2022-12-29T23:22:13.104Z,7.33
2022-12-29T23:27:16.836Z,7.34
2022-12-29T23:32:18.597Z,7.35
2022-12-29T23:37:20.692Z,7.51
2022-12-29T23:42:23.745Z,7.58
2022-12-29T23:47:25.716Z,7.58
2022-12-29T23:52:28.046Z,7.56
2022-12-29T23:57:31.569Z,7.59
